createdAt,value
2022-08-20T04:00:27.512Z,1003.48
2022-08-20T04:01:45.674Z,1003.40
2022-08-20T04:02:28.433Z,1003.50
2022-08-20T04:03:27.447Z,1003.38
2022-08-20T04:04:27.417Z,1003.41
2022-08-20T04:05:28.330Z,1003.42
2022-08-20T04:06:27.394Z,1003.44
2022-08-20T04:07:27.378Z,1003.45
2022-08-20T04:08:27.378Z,1003.41
2022-08-20T04:09:27.364Z,1003.46
2022-08-20T04:10:27.343Z,1003.46
2022-08-20T04:11:32.359Z,1003.47
2022-08-20T04:12:27.319Z,1003.47
2022-08-20T04:13:27.318Z,1003.48
2022-08-20T04:14:27.300Z,1003.49
2022-08-20T04:15:27.286Z,1003.45
2022-08-20T04:16:27.277Z,1003.45
2022-08-20T04:17:27.281Z,1003.46
2022-08-20T04:18:27.265Z,1003.42
2022-08-20T04:19:31.208Z,1003.42
2022-08-20T04:20:28.268Z,1003.45
2022-08-20T04:21:29.684Z,1003.47
2022-08-20T04:22:33.229Z,1003.48
2022-08-20T04:23:27.208Z,1003.49
2022-08-20T04:24:32.228Z,1003.50
2022-08-20T04:25:28.175Z,1003.51
2022-08-20T04:26:27.174Z,1003.54
2022-08-20T04:27:27.184Z,1003.52
2022-08-20T04:28:27.162Z,1003.49
2022-08-20T04:29:32.462Z,1003.48
2022-08-20T04:30:28.118Z,1003.53
2022-08-20T04:31:27.106Z,1003.50
2022-08-20T04:32:27.094Z,1003.49
2022-08-20T04:33:33.809Z,1003.54
2022-08-20T04:34:27.078Z,1003.50
2022-08-20T04:35:27.060Z,1003.48
2022-08-20T04:36:27.048Z,1003.52
2022-08-20T04:37:27.036Z,1003.51
2022-08-20T04:38:27.037Z,1003.50
2022-08-20T04:39:28.012Z,1003.53
2022-08-20T04:40:27.003Z,1003.48
2022-08-20T04:41:26.991Z,1003.51
2022-08-20T04:42:26.986Z,1003.51
2022-08-20T04:43:26.979Z,1003.53
2022-08-20T04:44:31.988Z,1003.52
2022-08-20T04:45:26.946Z,1003.57
2022-08-20T04:46:26.935Z,1003.58
2022-08-20T04:47:34.663Z,1003.57
2022-08-20T04:48:27.946Z,1003.57
2022-08-20T04:49:26.906Z,1003.62
2022-08-20T04:50:26.892Z,1003.59
2022-08-20T04:51:27.108Z,1003.67
2022-08-20T04:52:26.868Z,1003.57
2022-08-20T04:53:26.868Z,1003.61
2022-08-20T04:54:26.847Z,1003.60
2022-08-20T04:55:31.871Z,1003.62
2022-08-20T04:56:26.848Z,1003.64
2022-08-20T04:57:26.812Z,1003.59
2022-08-20T04:58:26.813Z,1003.61
2022-08-20T04:59:26.799Z,1003.63
2022-08-20T05:00:26.792Z,1003.62
2022-08-20T05:01:26.823Z,1003.67
2022-08-20T05:02:26.767Z,1003.69
2022-08-20T05:03:26.744Z,1003.72
2022-08-20T05:04:26.743Z,1003.75
2022-08-20T05:05:26.718Z,1003.67
2022-08-20T05:06:31.742Z,1003.66
2022-08-20T05:07:26.703Z,1003.67
2022-08-20T05:08:26.686Z,1003.84
2022-08-20T05:09:26.686Z,1003.79
2022-08-20T05:10:26.663Z,1003.78
2022-08-20T05:11:35.254Z,1003.76
2022-08-20T05:12:27.643Z,1003.76
2022-08-20T05:13:27.502Z,1003.87
2022-08-20T05:14:26.644Z,1003.75
2022-08-20T05:15:26.613Z,1003.75
2022-08-20T05:16:26.596Z,1003.80
2022-08-20T05:17:31.620Z,1003.81
2022-08-20T05:18:26.574Z,1003.84
2022-08-20T05:19:26.573Z,1003.87
2022-08-20T05:20:26.550Z,1003.91
2022-08-20T05:21:26.539Z,1003.88
2022-08-20T05:22:26.530Z,1003.94
2022-08-20T05:23:26.531Z,1003.92
2022-08-20T05:24:26.505Z,1003.97
2022-08-20T05:25:26.522Z,1003.94
2022-08-20T05:26:26.485Z,1003.90
2022-08-20T05:27:26.471Z,1003.98
2022-08-20T05:28:31.493Z,1003.94
2022-08-20T05:29:26.450Z,1003.89
2022-08-20T05:30:26.442Z,1003.94
2022-08-20T05:31:31.285Z,1003.95
2022-08-20T05:32:27.418Z,1003.89
2022-08-20T05:33:26.420Z,1003.96
2022-08-20T05:34:26.399Z,1003.98
2022-08-20T05:35:26.380Z,1003.93
2022-08-20T05:36:26.374Z,1003.97
2022-08-20T05:37:26.358Z,1004.01
2022-08-20T05:38:26.348Z,1004.02
2022-08-20T05:39:35.389Z,1004.06
2022-08-20T05:40:27.396Z,1004.05
2022-08-20T05:41:29.143Z,1004.09
2022-08-20T05:42:26.304Z,1004.11
2022-08-20T05:43:26.294Z,1004.09
2022-08-20T05:44:26.290Z,1004.15
2022-08-20T05:45:26.268Z,1004.13
2022-08-20T05:46:26.259Z,1004.16
2022-08-20T05:47:26.244Z,1004.16
2022-08-20T05:48:26.247Z,1004.24
2022-08-20T05:49:26.221Z,1004.18
2022-08-20T05:50:31.244Z,1004.22
2022-08-20T05:51:26.200Z,1004.19
2022-08-20T05:52:26.192Z,1004.23
2022-08-20T05:53:26.270Z,1004.23
2022-08-20T05:54:26.167Z,1004.19
2022-08-20T05:55:26.154Z,1004.24
2022-08-20T05:56:26.988Z,1004.13
2022-08-20T05:57:26.138Z,1004.19
2022-08-20T05:58:26.123Z,1004.22
2022-08-20T05:59:26.118Z,1004.20
2022-08-20T06:00:26.099Z,1004.18
2022-08-20T06:01:31.188Z,1004.20
2022-08-20T06:02:26.086Z,1004.22
2022-08-20T06:03:26.064Z,1004.12
2022-08-20T06:04:26.066Z,1004.21
2022-08-20T06:05:26.043Z,1004.16
2022-08-20T06:06:44.259Z,1004.18
2022-08-20T06:07:27.050Z,1004.14
2022-08-20T06:08:26.035Z,1004.20
2022-08-20T06:09:31.290Z,1004.23
2022-08-20T06:10:26.986Z,1004.18
2022-08-20T06:11:25.975Z,1004.22
2022-08-20T06:12:30.988Z,1004.13
2022-08-20T06:13:25.953Z,1004.20
2022-08-20T06:14:25.953Z,1004.13
2022-08-20T06:15:25.935Z,1004.16
2022-08-20T06:16:28.946Z,1004.20
2022-08-20T06:17:25.919Z,1004.12
2022-08-20T06:18:28.382Z,1004.13
2022-08-20T06:19:26.364Z,1004.17
2022-08-20T06:20:25.884Z,1004.11
2022-08-20T06:21:25.883Z,1004.15
2022-08-20T06:22:26.441Z,1004.19
2022-08-20T06:23:56.768Z,1004.17
2022-08-20T06:24:26.844Z,1004.18
2022-08-20T06:25:25.824Z,1004.16
2022-08-20T06:26:29.968Z,1004.16
2022-08-20T06:27:26.797Z,1004.17
2022-08-20T06:28:25.792Z,1004.17
2022-08-20T06:29:25.794Z,1004.18
2022-08-20T06:30:25.765Z,1004.23
2022-08-20T06:31:25.753Z,1004.22
2022-08-20T06:32:32.197Z,1004.22
2022-08-20T06:33:26.731Z,1004.20
2022-08-20T06:34:30.901Z,1004.24
2022-08-20T06:35:25.713Z,1004.30
2022-08-20T06:36:25.736Z,1004.30
2022-08-20T06:37:27.653Z,1004.27
2022-08-20T06:38:26.678Z,1004.28
2022-08-20T06:39:25.679Z,1004.34
2022-08-20T06:40:25.658Z,1004.29
2022-08-20T06:41:35.705Z,1004.32
2022-08-20T06:42:26.655Z,1004.28
2022-08-20T06:43:25.630Z,1004.29
2022-08-20T06:44:25.651Z,1004.28
2022-08-20T06:45:30.625Z,1004.36
2022-08-20T06:46:25.601Z,1004.36
2022-08-20T06:47:25.589Z,1004.40
2022-08-20T06:48:25.571Z,1004.30
2022-08-20T06:49:25.620Z,1004.34
2022-08-20T06:50:25.548Z,1004.38
2022-08-20T06:51:25.557Z,1004.33
2022-08-20T06:52:27.118Z,1004.36
2022-08-20T06:53:26.511Z,1004.35
2022-08-20T06:54:28.636Z,1004.41
2022-08-20T06:55:25.538Z,1004.37
2022-08-20T06:56:30.529Z,1004.44
2022-08-20T06:57:25.469Z,1004.37
2022-08-20T06:58:36.989Z,1004.45
2022-08-20T06:59:26.456Z,1004.41
2022-08-20T07:00:25.496Z,1004.40
2022-08-20T07:01:25.509Z,1004.43
2022-08-20T07:02:30.042Z,1004.47
2022-08-20T07:03:25.410Z,1004.42
2022-08-20T07:04:25.408Z,1004.41
2022-08-20T07:05:25.381Z,1004.42
2022-08-20T07:06:25.825Z,1004.38
2022-08-20T07:07:30.411Z,1004.41
2022-08-20T07:08:25.355Z,1004.42
2022-08-20T07:09:25.338Z,1004.49
2022-08-20T07:10:25.399Z,1004.42
2022-08-20T07:11:28.235Z,1004.54
2022-08-20T07:12:25.305Z,1004.53
2022-08-20T07:13:25.534Z,1004.51
2022-08-20T07:14:25.285Z,1004.50
2022-08-20T07:15:25.523Z,1004.52
2022-08-20T07:16:25.268Z,1004.56
2022-08-20T07:17:25.250Z,1004.55
2022-08-20T07:18:30.263Z,1004.44
2022-08-20T07:19:25.241Z,1004.54
2022-08-20T07:20:25.230Z,1004.48
2022-08-20T07:21:25.204Z,1004.51
2022-08-20T07:22:25.194Z,1004.51
2022-08-20T07:23:25.186Z,1004.44
2022-08-20T07:24:25.176Z,1004.45
2022-08-20T07:25:26.215Z,1004.51
2022-08-20T07:26:25.150Z,1004.52
2022-08-20T07:27:25.137Z,1004.46
2022-08-20T07:28:25.127Z,1004.50
2022-08-20T07:29:30.157Z,1004.46
2022-08-20T07:30:25.121Z,1004.56
2022-08-20T07:31:25.113Z,1004.51
2022-08-20T07:32:26.179Z,1004.55
2022-08-20T07:33:25.073Z,1004.53
2022-08-20T07:34:25.062Z,1004.50
2022-08-20T07:35:25.064Z,1004.49
2022-08-20T07:36:25.044Z,1004.52
2022-08-20T07:37:25.028Z,1004.53
2022-08-20T07:38:25.017Z,1004.49
2022-08-20T07:39:25.007Z,1004.48
2022-08-20T07:40:30.089Z,1004.52
2022-08-20T07:41:24.982Z,1004.49
2022-08-20T07:42:24.972Z,1004.53
2022-08-20T07:43:24.962Z,1004.61
2022-08-20T07:44:29.180Z,1004.59
2022-08-20T07:45:25.951Z,1004.59
2022-08-20T07:46:24.932Z,1004.56
2022-08-20T07:47:25.960Z,1004.55
2022-08-20T07:48:31.489Z,1004.61
2022-08-20T07:49:25.907Z,1004.55
2022-08-20T07:50:24.886Z,1004.64
2022-08-20T07:51:29.911Z,1004.69
2022-08-20T07:52:24.864Z,1004.65
2022-08-20T07:53:24.849Z,1004.69
2022-08-20T07:54:24.840Z,1004.67
2022-08-20T07:55:24.829Z,1004.66
2022-08-20T07:56:24.906Z,1004.60
2022-08-20T07:57:24.805Z,1004.72
2022-08-20T07:58:27.592Z,1004.62
2022-08-20T07:59:25.784Z,1004.64
2022-08-20T08:00:24.773Z,1004.61
2022-08-20T08:01:24.843Z,1004.68
2022-08-20T08:02:29.772Z,1004.63
2022-08-20T08:03:39.856Z,1004.66
2022-08-20T08:04:25.734Z,1004.58
2022-08-20T08:05:25.675Z,1004.67
2022-08-20T08:06:28.994Z,1004.66
2022-08-20T08:07:25.823Z,1004.65
2022-08-20T08:08:24.685Z,1004.64
2022-08-20T08:09:24.675Z,1004.63
2022-08-20T08:10:24.670Z,1004.65
2022-08-20T08:11:24.662Z,1004.70
2022-08-20T08:12:24.649Z,1004.67
2022-08-20T08:13:29.651Z,1004.66
2022-08-20T08:14:24.620Z,1004.61
2022-08-20T08:15:24.608Z,1004.71
2022-08-20T08:16:24.688Z,1004.67
2022-08-20T08:17:24.590Z,1004.75
2022-08-20T08:18:27.726Z,1004.73
2022-08-20T08:19:25.563Z,1004.73
2022-08-20T08:20:24.555Z,1004.69
2022-08-20T08:21:24.554Z,1004.68
2022-08-20T08:22:24.531Z,1004.68
2022-08-20T08:23:31.952Z,1004.63
2022-08-20T08:24:30.526Z,1004.67
2022-08-20T08:25:24.497Z,1004.73
2022-08-20T08:26:24.494Z,1004.74
2022-08-20T08:27:24.473Z,1004.74
2022-08-20T08:28:24.461Z,1004.72
2022-08-20T08:29:24.453Z,1004.76
2022-08-20T08:30:24.456Z,1004.69
2022-08-20T08:31:24.428Z,1004.67
2022-08-20T08:32:24.415Z,1004.67
2022-08-20T08:33:24.410Z,1004.67
2022-08-20T08:34:24.392Z,1004.73
2022-08-20T08:35:29.429Z,1004.75
2022-08-20T08:36:24.369Z,1004.66
2022-08-20T08:37:26.912Z,1004.71
2022-08-20T08:38:24.349Z,1004.76
2022-08-20T08:39:24.337Z,1004.79
2022-08-20T08:40:25.421Z,1004.69
2022-08-20T08:41:24.330Z,1004.64
2022-08-20T08:42:24.300Z,1004.67
2022-08-20T08:43:24.292Z,1004.69
2022-08-20T08:44:24.280Z,1004.73
2022-08-20T08:45:24.323Z,1004.73
2022-08-20T08:46:29.290Z,1004.73
2022-08-20T08:47:24.246Z,1004.66
2022-08-20T08:48:24.236Z,1004.73
2022-08-20T08:49:24.238Z,1004.67
2022-08-20T08:50:49.889Z,1004.71
2022-08-20T08:51:25.211Z,1004.68
2022-08-20T08:52:24.537Z,1004.72
2022-08-20T08:53:24.177Z,1004.70
2022-08-20T08:54:24.168Z,1004.71
2022-08-20T08:55:24.154Z,1004.69
2022-08-20T08:56:24.158Z,1004.71
2022-08-20T08:57:29.165Z,1004.64
2022-08-20T08:58:24.126Z,1004.67
2022-08-20T08:59:24.109Z,1004.66
2022-08-20T09:00:24.103Z,1004.70
2022-08-20T09:01:53.780Z,1004.64
2022-08-20T09:02:25.109Z,1004.60
2022-08-20T09:03:24.066Z,1004.63
2022-08-20T09:04:24.053Z,1004.68
2022-08-20T09:05:24.048Z,1004.68
2022-08-20T09:06:24.041Z,1004.64
2022-08-20T09:07:24.020Z,1004.64
2022-08-20T09:08:29.059Z,1004.69
2022-08-20T09:09:24.001Z,1004.63
2022-08-20T09:10:23.985Z,1004.59
2022-08-20T09:11:23.996Z,1004.58
2022-08-20T09:12:23.964Z,1004.60
2022-08-20T09:13:23.953Z,1004.68
2022-08-20T09:14:23.942Z,1004.63
2022-08-20T09:15:23.935Z,1004.66
2022-08-20T09:16:23.940Z,1004.60
2022-08-20T09:17:23.924Z,1004.63
2022-08-20T09:18:23.927Z,1004.62
2022-08-20T09:19:28.913Z,1004.60
2022-08-20T09:20:27.049Z,1004.53
2022-08-20T09:21:23.880Z,1004.59
2022-08-20T09:22:23.852Z,1004.62
2022-08-20T09:23:23.843Z,1004.62
2022-08-20T09:24:23.830Z,1004.63
2022-08-20T09:25:23.822Z,1004.62
2022-08-20T09:26:23.821Z,1004.67
2022-08-20T09:27:24.806Z,1004.70
2022-08-20T09:28:23.783Z,1004.75
2022-08-20T09:29:23.776Z,1004.71
2022-08-20T09:30:28.809Z,1004.65
2022-08-20T09:31:23.768Z,1004.66
2022-08-20T09:32:23.747Z,1004.66
2022-08-20T09:33:23.733Z,1004.63
2022-08-20T09:34:23.735Z,1004.61
2022-08-20T09:35:23.713Z,1004.60
2022-08-20T09:36:29.096Z,1004.59
2022-08-20T09:37:24.684Z,1004.66
2022-08-20T09:38:23.672Z,1004.66
2022-08-20T09:39:23.666Z,1004.63
2022-08-20T09:40:23.716Z,1004.66
2022-08-20T09:41:28.681Z,1004.61
2022-08-20T09:42:23.878Z,1004.53
2022-08-20T09:43:23.619Z,1004.61
2022-08-20T09:44:23.611Z,1004.54
2022-08-20T09:45:23.600Z,1004.58
2022-08-20T09:46:27.204Z,1004.61
2022-08-20T09:47:23.601Z,1004.56
2022-08-20T09:48:31.885Z,1004.60
2022-08-20T09:49:24.556Z,1004.56
2022-08-20T09:50:24.176Z,1004.60
2022-08-20T09:51:23.535Z,1004.61
2022-08-20T09:52:28.771Z,1004.61
2022-08-20T09:53:23.512Z,1004.53
2022-08-20T09:54:23.510Z,1004.63
2022-08-20T09:55:23.484Z,1004.60
2022-08-20T09:56:23.470Z,1004.57
2022-08-20T09:57:23.477Z,1004.63
2022-08-20T09:58:23.450Z,1004.58
2022-08-20T09:59:23.449Z,1004.46
2022-08-20T10:00:23.523Z,1004.55
2022-08-20T10:01:23.492Z,1004.48
2022-08-20T10:02:23.416Z,1004.51
2022-08-20T10:03:28.417Z,1004.48
2022-08-20T10:04:23.404Z,1004.49
2022-08-20T10:05:23.379Z,1004.54
2022-08-20T10:06:23.361Z,1004.52
2022-08-20T10:07:23.372Z,1004.49
2022-08-20T10:08:23.402Z,1004.49
2022-08-20T10:09:23.330Z,1004.47
2022-08-20T10:10:23.337Z,1004.40
2022-08-20T10:11:23.304Z,1004.49
2022-08-20T10:12:23.337Z,1004.48
2022-08-20T10:13:23.298Z,1004.43
2022-08-20T10:14:28.317Z,1004.47
2022-08-20T10:15:23.262Z,1004.48
2022-08-20T10:16:23.253Z,1004.55
2022-08-20T10:17:23.253Z,1004.47
2022-08-20T10:18:23.225Z,1004.56
2022-08-20T10:19:23.214Z,1004.54
2022-08-20T10:20:23.202Z,1004.57
2022-08-20T10:21:23.195Z,1004.52
2022-08-20T10:22:23.194Z,1004.52
2022-08-20T10:23:23.170Z,1004.56
2022-08-20T10:24:23.160Z,1004.50
2022-08-20T10:25:28.170Z,1004.49
2022-08-20T10:26:23.139Z,1004.47
2022-08-20T10:27:23.136Z,1004.40
2022-08-20T10:28:23.120Z,1004.43
2022-08-20T10:29:23.102Z,1004.50
2022-08-20T10:30:23.091Z,1004.47
2022-08-20T10:31:23.725Z,1004.53
2022-08-20T10:32:24.228Z,1004.52
2022-08-20T10:33:23.721Z,1004.47
2022-08-20T10:34:23.719Z,1004.55
2022-08-20T10:35:23.724Z,1004.47
2022-08-20T10:36:28.059Z,1004.45
2022-08-20T10:37:23.026Z,1004.40
2022-08-20T10:38:23.010Z,1004.43
2022-08-20T10:39:22.992Z,1004.46
2022-08-20T10:40:23.089Z,1004.38
2022-08-20T10:41:22.968Z,1004.39
2022-08-20T10:42:22.967Z,1004.30
2022-08-20T10:43:22.948Z,1004.38
2022-08-20T10:44:22.936Z,1004.35
2022-08-20T10:45:22.942Z,1004.40
2022-08-20T10:46:22.912Z,1004.33
2022-08-20T10:47:27.951Z,1004.39
2022-08-20T10:48:22.890Z,1004.44
2022-08-20T10:49:22.879Z,1004.42
2022-08-20T10:50:22.865Z,1004.38
2022-08-20T10:51:22.859Z,1004.34
2022-08-20T10:52:23.867Z,1004.43
2022-08-20T10:53:22.835Z,1004.39
2022-08-20T10:54:22.820Z,1004.42
2022-08-20T10:55:22.814Z,1004.43
2022-08-20T10:56:22.802Z,1004.38
2022-08-20T10:57:22.802Z,1004.36
2022-08-20T10:58:37.532Z,1004.28
2022-08-20T10:59:23.767Z,1004.33
2022-08-20T11:00:22.756Z,1004.24
2022-08-20T11:01:31.593Z,1004.26
2022-08-20T11:02:23.819Z,1004.21
2022-08-20T11:03:22.724Z,1004.26
2022-08-20T11:04:22.716Z,1004.27
2022-08-20T11:05:22.702Z,1004.27
2022-08-20T11:06:22.690Z,1004.28
2022-08-20T11:07:22.693Z,1004.30
2022-08-20T11:08:33.468Z,1004.26
2022-08-20T11:09:28.683Z,1004.23
2022-08-20T11:10:22.655Z,1004.19
2022-08-20T11:11:22.632Z,1004.18
2022-08-20T11:12:22.644Z,1004.19
2022-08-20T11:13:22.611Z,1004.24
2022-08-20T11:14:22.597Z,1004.23
2022-08-20T11:15:22.588Z,1004.16
2022-08-20T11:16:22.743Z,1004.20
2022-08-20T11:17:22.588Z,1004.16
2022-08-20T11:18:22.552Z,1004.22
2022-08-20T11:19:22.546Z,1004.14
2022-08-20T11:20:27.552Z,1004.18
2022-08-20T11:21:22.524Z,1004.17
2022-08-20T11:22:22.521Z,1004.12
2022-08-20T11:23:22.520Z,1004.09
2022-08-20T11:24:22.489Z,1004.05
2022-08-20T11:25:22.477Z,1004.14
2022-08-20T11:26:22.464Z,1004.09
2022-08-20T11:27:22.457Z,1004.10
2022-08-20T11:28:31.860Z,1004.12
2022-08-20T11:29:23.434Z,1004.14
2022-08-20T11:30:22.419Z,1004.05
2022-08-20T11:31:27.432Z,1003.99
2022-08-20T11:32:22.397Z,1004.02
2022-08-20T11:33:23.163Z,1004.07
2022-08-20T11:34:22.377Z,1004.09
2022-08-20T11:35:42.266Z,1004.06
2022-08-20T11:36:23.354Z,1004.07
2022-08-20T11:37:22.347Z,1004.09
2022-08-20T11:38:22.340Z,1004.08
2022-08-20T11:39:22.321Z,1004.04
2022-08-20T11:40:22.382Z,1004.06
2022-08-20T11:41:22.303Z,1004.12
2022-08-20T11:42:27.322Z,1004.11
2022-08-20T11:43:22.294Z,1004.12
2022-08-20T11:44:22.266Z,1004.02
2022-08-20T11:45:22.256Z,1003.99
2022-08-20T11:46:26.556Z,1004.12
2022-08-20T11:47:23.240Z,1004.09
2022-08-20T11:48:22.233Z,1004.14
2022-08-20T11:49:22.209Z,1004.19
2022-08-20T11:50:22.197Z,1004.08
2022-08-20T11:51:22.186Z,1004.14
2022-08-20T11:52:22.185Z,1004.05
2022-08-20T11:53:27.191Z,1004.05
2022-08-20T11:54:22.155Z,1004.08
2022-08-20T11:55:22.143Z,1004.02
2022-08-20T11:56:23.131Z,1004.05
2022-08-20T11:57:22.140Z,1004.03
2022-08-20T11:58:22.108Z,1004.05
2022-08-20T11:59:22.100Z,1004.08
2022-08-20T12:00:22.088Z,1004.04
2022-08-20T12:01:23.078Z,1004.24
2022-08-20T12:02:22.161Z,1004.03
2022-08-20T12:03:22.107Z,1004.19
2022-08-20T12:04:27.065Z,1004.10
2022-08-20T12:05:22.032Z,1004.29
2022-08-20T12:06:22.024Z,1004.31
2022-08-20T12:07:22.016Z,1004.34
2022-08-20T12:08:26.711Z,1004.26
2022-08-20T12:09:24.853Z,1004.39
2022-08-20T12:10:21.980Z,1004.37
2022-08-20T12:11:21.967Z,1004.24
2022-08-20T12:12:21.961Z,1004.08
2022-08-20T12:13:30.831Z,1003.92
2022-08-20T12:14:22.933Z,1004.00
2022-08-20T12:15:26.969Z,1004.00
2022-08-20T12:16:21.933Z,1004.23
2022-08-20T12:17:21.927Z,1004.25
2022-08-20T12:18:21.914Z,1003.80
2022-08-20T12:19:22.890Z,1003.88
2022-08-20T12:20:21.868Z,1003.86
2022-08-20T12:21:21.858Z,1003.88
2022-08-20T12:22:24.392Z,1003.86
2022-08-20T12:23:21.851Z,1003.90
2022-08-20T12:24:21.828Z,1004.29
2022-08-20T12:25:21.814Z,1003.95
2022-08-20T12:26:21.810Z,1003.86
2022-08-20T12:27:21.793Z,1003.95
2022-08-20T12:28:26.813Z,1003.87
2022-08-20T12:29:21.796Z,1003.93
2022-08-20T12:30:21.784Z,1003.87
2022-08-20T12:31:21.749Z,1003.89
2022-08-20T12:32:21.740Z,1004.17
2022-08-20T12:33:21.741Z,1004.08
2022-08-20T12:34:21.722Z,1004.14
2022-08-20T12:35:21.706Z,1004.11
2022-08-20T12:36:21.695Z,1004.22
2022-08-20T12:37:21.684Z,1004.22
2022-08-20T12:38:21.692Z,1004.15
2022-08-20T12:39:21.666Z,1004.14
2022-08-20T12:40:27.421Z,1004.08
2022-08-20T12:41:27.660Z,1004.11
2022-08-20T12:42:21.653Z,1004.17
2022-08-20T12:43:24.814Z,1004.00
2022-08-20T12:44:21.610Z,1003.85
2022-08-20T12:45:21.598Z,1003.78
2022-08-20T12:46:21.590Z,1003.86
2022-08-20T12:47:21.606Z,1003.81
2022-08-20T12:48:21.579Z,1003.87
2022-08-20T12:49:21.557Z,1003.84
2022-08-20T12:50:21.545Z,1003.88
2022-08-20T12:51:21.533Z,1003.85
2022-08-20T12:52:21.523Z,1003.88
2022-08-20T12:53:21.529Z,1003.87
2022-08-20T12:54:26.524Z,1003.87
2022-08-20T12:55:21.502Z,1003.83
2022-08-20T12:56:21.502Z,1003.88
2022-08-20T12:57:21.469Z,1003.89
2022-08-20T12:58:21.460Z,1003.90
2022-08-20T12:59:25.715Z,1003.84
2022-08-20T13:00:21.439Z,1003.85
2022-08-20T13:01:21.464Z,1003.94
2022-08-20T13:02:21.416Z,1003.84
2022-08-20T13:03:21.410Z,1003.85
2022-08-20T13:04:21.417Z,1003.79
2022-08-20T13:05:26.408Z,1003.83
2022-08-20T13:06:21.401Z,1003.80
2022-08-20T13:07:21.383Z,1003.77
2022-08-20T13:08:21.351Z,1003.79
2022-08-20T13:09:21.350Z,1003.78
2022-08-20T13:10:21.332Z,1003.74
2022-08-20T13:11:21.318Z,1003.70
2022-08-20T13:12:21.317Z,1003.73
2022-08-20T13:13:21.326Z,1003.77
2022-08-20T13:14:21.298Z,1003.74
2022-08-20T13:15:21.272Z,1003.65
2022-08-20T13:16:21.273Z,1003.67
2022-08-20T13:17:38.883Z,1003.65
2022-08-20T13:18:27.262Z,1003.55
2022-08-20T13:19:21.261Z,1003.56
2022-08-20T13:20:21.242Z,1003.55
2022-08-20T13:21:24.020Z,1003.58
2022-08-20T13:22:21.198Z,1003.53
2022-08-20T13:23:21.194Z,1003.58
2022-08-20T13:24:21.191Z,1003.59
2022-08-20T13:25:21.162Z,1003.51
2022-08-20T13:26:21.157Z,1003.61
2022-08-20T13:27:21.142Z,1003.48
2022-08-20T13:28:21.142Z,1003.42
2022-08-20T13:29:21.129Z,1003.43
2022-08-20T13:30:21.146Z,1003.46
2022-08-20T13:31:26.142Z,1003.43
2022-08-20T13:32:21.109Z,1003.38
2022-08-20T13:33:21.097Z,1003.40
2022-08-20T13:34:21.076Z,1003.42
2022-08-20T13:35:21.056Z,1003.43
2022-08-20T13:36:21.043Z,1003.34
2022-08-20T13:37:25.057Z,1003.36
2022-08-20T13:38:21.022Z,1003.35
2022-08-20T13:39:21.024Z,1003.36
2022-08-20T13:40:21.054Z,1003.42
2022-08-20T13:41:20.987Z,1003.36
2022-08-20T13:42:20.977Z,1003.35
2022-08-20T13:43:20.964Z,1003.39
2022-08-20T13:44:31.329Z,1003.33
2022-08-20T13:45:21.940Z,1003.32
2022-08-20T13:46:20.932Z,1003.30
2022-08-20T13:47:20.919Z,1003.33
2022-08-20T13:48:20.910Z,1003.42
2022-08-20T13:49:20.919Z,1003.33
2022-08-20T13:50:20.891Z,1003.47
2022-08-20T13:51:21.679Z,1003.39
2022-08-20T13:52:20.904Z,1003.44
2022-08-20T13:53:20.855Z,1003.38
2022-08-20T13:54:20.859Z,1003.42
2022-08-20T13:55:25.854Z,1003.45
2022-08-20T13:56:20.823Z,1003.38
2022-08-20T13:57:20.813Z,1003.40
2022-08-20T13:58:20.804Z,1003.35
2022-08-20T13:59:20.797Z,1003.33
2022-08-20T14:00:20.780Z,1003.34
2022-08-20T14:01:20.808Z,1003.34
2022-08-20T14:02:20.761Z,1003.32
2022-08-20T14:03:25.313Z,1003.34
2022-08-20T14:04:21.743Z,1003.34
2022-08-20T14:05:20.722Z,1003.34
2022-08-20T14:06:25.734Z,1003.30
2022-08-20T14:07:20.698Z,1003.33
2022-08-20T14:08:20.690Z,1003.27
2022-08-20T14:09:20.695Z,1003.27
2022-08-20T14:10:20.699Z,1003.29
2022-08-20T14:11:20.663Z,1003.30
2022-08-20T14:12:20.647Z,1003.27
2022-08-20T14:13:20.677Z,1003.26
2022-08-20T14:14:20.653Z,1003.28
2022-08-20T14:15:20.617Z,1003.30
2022-08-20T14:16:25.218Z,1003.34
2022-08-20T14:17:26.613Z,1003.21
2022-08-20T14:18:20.579Z,1003.23
2022-08-20T14:19:20.582Z,1003.30
2022-08-20T14:20:20.562Z,1003.26
2022-08-20T14:21:20.546Z,1003.26
2022-08-20T14:22:20.535Z,1003.28
2022-08-20T14:23:20.530Z,1003.33
2022-08-20T14:24:20.524Z,1003.32
2022-08-20T14:25:20.502Z,1003.31
2022-08-20T14:26:20.502Z,1003.30
2022-08-20T14:27:20.483Z,1003.33
2022-08-20T14:28:25.491Z,1003.32
2022-08-20T14:29:20.470Z,1003.34
2022-08-20T14:30:20.448Z,1003.30
2022-08-20T14:31:20.439Z,1003.28
2022-08-20T14:32:20.428Z,1003.32
2022-08-20T14:33:20.415Z,1003.30
2022-08-20T14:34:20.413Z,1003.38
2022-08-20T14:35:20.469Z,1003.33
2022-08-20T14:36:20.386Z,1003.36
2022-08-20T14:37:20.401Z,1003.33
2022-08-20T14:38:20.359Z,1003.33
2022-08-20T14:39:25.395Z,1003.24
2022-08-20T14:40:20.505Z,1003.30
2022-08-20T14:41:20.329Z,1003.22
2022-08-20T14:42:20.315Z,1003.22
2022-08-20T14:43:20.335Z,1003.21
2022-08-20T14:44:20.336Z,1003.34
2022-08-20T14:45:20.286Z,1003.33
2022-08-20T14:46:20.274Z,1003.20
2022-08-20T14:47:20.258Z,1003.34
2022-08-20T14:48:20.247Z,1003.27
2022-08-20T14:49:20.245Z,1003.29
2022-08-20T14:50:25.255Z,1003.26
2022-08-20T14:51:20.215Z,1003.31
2022-08-20T14:52:20.203Z,1003.32
2022-08-20T14:53:20.201Z,1003.26
2022-08-20T14:54:20.203Z,1003.38
2022-08-20T14:55:20.190Z,1003.32
2022-08-20T14:56:20.159Z,1003.31
2022-08-20T14:57:20.149Z,1003.23
2022-08-20T14:58:20.138Z,1003.22
2022-08-20T14:59:20.136Z,1003.29
2022-08-20T15:00:20.121Z,1003.28
2022-08-20T15:01:25.296Z,1003.26
2022-08-20T15:02:20.093Z,1003.28
2022-08-20T15:03:20.090Z,1003.26
2022-08-20T15:04:20.082Z,1003.25
2022-08-20T15:05:20.065Z,1003.23
2022-08-20T15:06:21.992Z,1003.30
2022-08-20T15:07:20.037Z,1003.19
2022-08-20T15:08:20.049Z,1003.22
2022-08-20T15:09:20.029Z,1003.23
2022-08-20T15:10:20.047Z,1003.20
2022-08-20T15:11:20.100Z,1003.23
2022-08-20T15:12:25.041Z,1003.13
2022-08-20T15:13:19.973Z,1003.22
2022-08-20T15:14:19.980Z,1003.16
2022-08-20T15:15:19.950Z,1003.14
2022-08-20T15:16:19.947Z,1003.19
2022-08-20T15:17:19.933Z,1003.20
2022-08-20T15:18:19.919Z,1003.14
2022-08-20T15:19:19.905Z,1003.16
2022-08-20T15:20:20.925Z,1003.09
2022-08-20T15:21:21.911Z,1003.17
2022-08-20T15:22:19.879Z,1003.13
2022-08-20T15:23:24.881Z,1003.16
2022-08-20T15:24:19.853Z,1003.16
2022-08-20T15:25:19.856Z,1003.17
2022-08-20T15:26:19.833Z,1003.18
2022-08-20T15:27:22.593Z,1003.18
2022-08-20T15:28:19.807Z,1003.15
2022-08-20T15:29:22.955Z,1003.05
2022-08-20T15:30:19.794Z,1003.16
2022-08-20T15:31:19.778Z,1003.17
2022-08-20T15:32:20.385Z,1003.15
2022-08-20T15:33:19.781Z,1003.20
2022-08-20T15:34:24.762Z,1003.11
2022-08-20T15:35:19.740Z,1003.10
2022-08-20T15:36:19.720Z,1003.10
2022-08-20T15:37:19.706Z,1003.10
2022-08-20T15:38:19.698Z,1003.12
2022-08-20T15:39:19.736Z,1003.08
2022-08-20T15:40:20.187Z,1002.98
2022-08-20T15:41:19.751Z,1003.06
2022-08-20T15:42:19.652Z,1003.01
2022-08-20T15:43:19.641Z,1003.00
2022-08-20T15:44:19.633Z,1003.03
2022-08-20T15:45:24.687Z,1003.00
2022-08-20T15:46:19.608Z,1003.03
2022-08-20T15:47:19.595Z,1003.03
2022-08-20T15:48:19.586Z,1003.00
2022-08-20T15:49:19.590Z,1002.98
2022-08-20T15:50:19.566Z,1003.00
2022-08-20T15:51:19.586Z,1002.96
2022-08-20T15:52:19.550Z,1002.95
2022-08-20T15:53:19.530Z,1003.00
2022-08-20T15:54:19.531Z,1003.01
2022-08-20T15:55:19.508Z,1002.96
2022-08-20T15:56:24.522Z,1002.98
2022-08-20T15:57:19.484Z,1002.92
2022-08-20T15:58:19.477Z,1003.00
2022-08-20T15:59:19.477Z,1002.95
2022-08-20T16:00:19.457Z,1003.01
2022-08-20T16:01:24.441Z,1002.95
2022-08-20T16:02:25.075Z,1002.99
2022-08-20T16:03:20.422Z,1003.07
2022-08-20T16:04:19.409Z,1003.00
2022-08-20T16:05:19.407Z,1003.09